sensor_id;sensor_type;location;lat;lon;timestamp;temperature;humidity
7427;DHT22;3755;59.316;18.092;2022-11-15T00:02:26;7.50;99.90
7427;DHT22;3755;59.316;18.092;2022-11-15T00:04:53;7.50;99.90
7427;DHT22;3755;59.316;18.092;2022-11-15T00:07:21;7.50;99.90
7427;DHT22;3755;59.316;18.092;2022-11-15T00:10:16;7.60;99.90
7427;DHT22;3755;59.316;18.092;2022-11-15T00:12:44;7.50;99.90
7427;DHT22;3755;59.316;18.092;2022-11-15T00:15:12;7.50;99.90
7427;DHT22;3755;59.316;18.092;2022-11-15T00:17:40;7.40;99.90
7427;DHT22;3755;59.316;18.092;2022-11-15T00:20:13;7.40;99.90
7427;DHT22;3755;59.316;18.092;2022-11-15T00:22:41;7.40;99.90
7427;DHT22;3755;59.316;18.092;2022-11-15T00:25:15;7.40;99.90
7427;DHT22;3755;59.316;18.092;2022-11-15T00:27:46;7.40;99.90
7427;DHT22;3755;59.316;18.092;2022-11-15T00:30:19;7.30;99.90
7427;DHT22;3755;59.316;18.092;2022-11-15T00:33:02;7.30;99.90
7427;DHT22;3755;59.316;18.092;2022-11-15T00:35:31;7.30;99.90
7427;DHT22;3755;59.316;18.092;2022-11-15T00:37:59;7.30;99.90
7427;DHT22;3755;59.316;18.092;2022-11-15T00:40:29;7.20;99.90
7427;DHT22;3755;59.316;18.092;2022-11-15T00:42:58;7.20;99.90
7427;DHT22;3755;59.316;18.092;2022-11-15T00:45:28;7.20;99.90
7427;DHT22;3755;59.316;18.092;2022-11-15T00:47:55;7.10;99.90
7427;DHT22;3755;59.316;18.092;2022-11-15T00:50:22;7.10;99.90
7427;DHT22;3755;59.316;18.092;2022-11-15T00:52:50;7.00;99.90
7427;DHT22;3755;59.316;18.092;2022-11-15T00:55:21;7.00;99.90
7427;DHT22;3755;59.316;18.092;2022-11-15T00:57:57;7.00;99.90
7427;DHT22;3755;59.316;18.092;2022-11-15T01:00:36;7.00;99.90
7427;DHT22;3755;59.316;18.092;2022-11-15T01:03:07;7.10;99.90
7427;DHT22;3755;59.316;18.092;2022-11-15T01:05:49;7.10;99.90
7427;DHT22;3755;59.316;18.092;2022-11-15T01:08:17;7.00;99.90
7427;DHT22;3755;59.316;18.092;2022-11-15T01:10:45;7.00;99.90
7427;DHT22;3755;59.316;18.092;2022-11-15T01:13:15;6.90;99.90
7427;DHT22;3755;59.316;18.092;2022-11-15T01:15:42;6.90;99.90
7427;DHT22;3755;59.316;18.092;2022-11-15T01:18:24;6.80;99.90
7427;DHT22;3755;59.316;18.092;2022-11-15T01:20:52;6.80;99.90
7427;DHT22;3755;59.316;18.092;2022-11-15T01:23:20;6.90;99.90
7427;DHT22;3755;59.316;18.092;2022-11-15T01:25:47;6.90;99.90
7427;DHT22;3755;59.316;18.092;2022-11-15T01:28:16;6.90;99.90
7427;DHT22;3755;59.316;18.092;2022-11-15T01:30:50;6.90;99.90
7427;DHT22;3755;59.316;18.092;2022-11-15T01:33:18;6.80;99.90
7427;DHT22;3755;59.316;18.092;2022-11-15T01:35:46;6.90;99.90
7427;DHT22;3755;59.316;18.092;2022-11-15T01:38:16;6.90;99.90
7427;DHT22;3755;59.316;18.092;2022-11-15T01:40:43;6.70;99.90
7427;DHT22;3755;59.316;18.092;2022-11-15T01:43:28;6.70;99.90
7427;DHT22;3755;59.316;18.092;2022-11-15T01:46:02;6.70;99.90
7427;DHT22;3755;59.316;18.092;2022-11-15T01:48:33;6.60;99.90
7427;DHT22;3755;59.316;18.092;2022-11-15T01:51:07;6.60;99.90
7427;DHT22;3755;59.316;18.092;2022-11-15T01:53:40;6.60;99.90
7427;DHT22;3755;59.316;18.092;2022-11-15T01:56:13;6.50;99.90
7427;DHT22;3755;59.316;18.092;2022-11-15T01:58:49;6.50;99.90
7427;DHT22;3755;59.316;18.092;2022-11-15T02:01:20;6.60;99.90
7427;DHT22;3755;59.316;18.092;2022-11-15T02:03:54;6.50;99.90
7427;DHT22;3755;59.316;18.092;2022-11-15T02:06:24;6.40;99.90
7427;DHT22;3755;59.316;18.092;2022-11-15T02:09:00;6.40;99.90
7427;DHT22;3755;59.316;18.092;2022-11-15T02:11:29;6.30;99.90
7427;DHT22;3755;59.316;18.092;2022-11-15T02:14:07;6.30;99.90
7427;DHT22;3755;59.316;18.092;2022-11-15T02:16:55;6.30;99.90
7427;DHT22;3755;59.316;18.092;2022-11-15T02:19:59;6.30;99.90
7427;DHT22;3755;59.316;18.092;2022-11-15T02:22:40;6.30;99.90
7427;DHT22;3755;59.316;18.092;2022-11-15T02:25:33;6.30;99.90
7427;DHT22;3755;59.316;18.092;2022-11-15T02:28:27;6.30;99.90
7427;DHT22;3755;59.316;18.092;2022-11-15T02:31:13;6.30;99.90
7427;DHT22;3755;59.316;18.092;2022-11-15T02:33:53;6.30;99.90
7427;DHT22;3755;59.316;18.092;2022-11-15T02:36:41;6.30;99.90
7427;DHT22;3755;59.316;18.092;2022-11-15T02:39:21;6.30;99.90
7427;DHT22;3755;59.316;18.092;2022-11-15T02:41:57;6.30;99.90
7427;DHT22;3755;59.316;18.092;2022-11-15T02:44:33;6.30;99.90
7427;DHT22;3755;59.316;18.092;2022-11-15T02:47:05;6.30;99.90
7427;DHT22;3755;59.316;18.092;2022-11-15T02:49:42;6.30;99.90
7427;DHT22;3755;59.316;18.092;2022-11-15T02:52:15;6.30;99.90
7427;DHT22;3755;59.316;18.092;2022-11-15T02:54:54;6.30;99.90
7427;DHT22;3755;59.316;18.092;2022-11-15T02:57:44;6.30;99.90
7427;DHT22;3755;59.316;18.092;2022-11-15T03:00:25;6.20;99.90
7427;DHT22;3755;59.316;18.092;2022-11-15T03:03:30;6.20;99.90
7427;DHT22;3755;59.316;18.092;2022-11-15T03:06:14;6.20;99.90
7427;DHT22;3755;59.316;18.092;2022-11-15T03:09:04;6.20;99.90
7427;DHT22;3755;59.316;18.092;2022-11-15T03:11:38;6.20;99.90
7427;DHT22;3755;59.316;18.092;2022-11-15T03:14:23;6.10;99.90
7427;DHT22;3755;59.316;18.092;2022-11-15T03:17:14;6.10;99.90
7427;DHT22;3755;59.316;18.092;2022-11-15T03:20:08;6.10;99.90
7427;DHT22;3755;59.316;18.092;2022-11-15T03:22:40;6.10;99.90
7427;DHT22;3755;59.316;18.092;2022-11-15T03:25:10;6.10;99.90
7427;DHT22;3755;59.316;18.092;2022-11-15T03:27:43;6.10;99.90
7427;DHT22;3755;59.316;18.092;2022-11-15T03:30:18;6.00;99.90
7427;DHT22;3755;59.316;18.092;2022-11-15T03:32:54;6.00;99.90
7427;DHT22;3755;59.316;18.092;2022-11-15T03:35:37;6.00;99.90
7427;DHT22;3755;59.316;18.092;2022-11-15T03:38:22;6.00;99.90
7427;DHT22;3755;59.316;18.092;2022-11-15T03:40:59;6.00;99.90
7427;DHT22;3755;59.316;18.092;2022-11-15T03:43:33;6.00;99.90
7427;DHT22;3755;59.316;18.092;2022-11-15T03:46:07;6.00;99.90
7427;DHT22;3755;59.316;18.092;2022-11-15T03:48:40;6.10;99.90
7427;DHT22;3755;59.316;18.092;2022-11-15T03:51:12;6.10;99.90
7427;DHT22;3755;59.316;18.092;2022-11-15T03:53:55;6.00;99.90
7427;DHT22;3755;59.316;18.092;2022-11-15T03:56:36;6.10;99.90
7427;DHT22;3755;59.316;18.092;2022-11-15T03:59:24;6.00;99.90
7427;DHT22;3755;59.316;18.092;2022-11-15T04:02:05;6.00;99.90
7427;DHT22;3755;59.316;18.092;2022-11-15T04:04:32;6.00;99.90
7427;DHT22;3755;59.316;18.092;2022-11-15T04:07:02;6.00;99.90
7427;DHT22;3755;59.316;18.092;2022-11-15T04:09:43;6.00;99.90
7427;DHT22;3755;59.316;18.092;2022-11-15T04:12:29;6.00;99.90
7427;DHT22;3755;59.316;18.092;2022-11-15T04:14:59;6.00;99.90
7427;DHT22;3755;59.316;18.092;2022-11-15T04:17:51;6.00;99.90
7427;DHT22;3755;59.316;18.092;2022-11-15T04:20:19;6.00;99.90
7427;DHT22;3755;59.316;18.092;2022-11-15T04:23:10;6.00;99.90
7427;DHT22;3755;59.316;18.092;2022-11-15T04:25:56;6.10;99.90
7427;DHT22;3755;59.316;18.092;2022-11-15T04:28:25;6.10;99.90
7427;DHT22;3755;59.316;18.092;2022-11-15T04:30:52;6.10;99.90
7427;DHT22;3755;59.316;18.092;2022-11-15T04:33:20;6.10;99.90
7427;DHT22;3755;59.316;18.092;2022-11-15T04:35:58;6.10;99.90
7427;DHT22;3755;59.316;18.092;2022-11-15T04:38:41;6.00;99.90
7427;DHT22;3755;59.316;18.092;2022-11-15T04:41:10;6.00;99.90
7427;DHT22;3755;59.316;18.092;2022-11-15T04:43:37;6.00;99.90
7427;DHT22;3755;59.316;18.092;2022-11-15T04:46:07;6.00;99.90
7427;DHT22;3755;59.316;18.092;2022-11-15T04:48:36;6.00;99.90
7427;DHT22;3755;59.316;18.092;2022-11-15T04:51:04;6.10;99.90
7427;DHT22;3755;59.316;18.092;2022-11-15T04:53:33;6.00;99.90
7427;DHT22;3755;59.316;18.092;2022-11-15T04:56:03;6.00;99.90
7427;DHT22;3755;59.316;18.092;2022-11-15T04:58:31;6.00;99.90
7427;DHT22;3755;59.316;18.092;2022-11-15T05:01:06;5.90;99.90
7427;DHT22;3755;59.316;18.092;2022-11-15T05:03:35;5.90;99.90
7427;DHT22;3755;59.316;18.092;2022-11-15T05:06:30;5.90;99.90
7427;DHT22;3755;59.316;18.092;2022-11-15T05:08:58;6.00;99.90
7427;DHT22;3755;59.316;18.092;2022-11-15T05:11:49;6.00;99.90
7427;DHT22;3755;59.316;18.092;2022-11-15T05:14:32;6.00;99.90
7427;DHT22;3755;59.316;18.092;2022-11-15T05:17:13;6.00;99.90
7427;DHT22;3755;59.316;18.092;2022-11-15T05:19:42;6.00;99.90
7427;DHT22;3755;59.316;18.092;2022-11-15T05:22:14;6.00;99.90
7427;DHT22;3755;59.316;18.092;2022-11-15T05:24:47;6.00;99.90
7427;DHT22;3755;59.316;18.092;2022-11-15T05:27:21;6.00;99.90
7427;DHT22;3755;59.316;18.092;2022-11-15T05:30:05;6.00;99.90
7427;DHT22;3755;59.316;18.092;2022-11-15T05:32:46;6.00;99.90
7427;DHT22;3755;59.316;18.092;2022-11-15T05:35:25;5.90;99.90
7427;DHT22;3755;59.316;18.092;2022-11-15T05:37:57;5.90;99.90
7427;DHT22;3755;59.316;18.092;2022-11-15T05:40:29;5.90;99.90
7427;DHT22;3755;59.316;18.092;2022-11-15T05:43:02;6.00;99.90
7427;DHT22;3755;59.316;18.092;2022-11-15T05:45:45;6.00;99.90
7427;DHT22;3755;59.316;18.092;2022-11-15T05:48:28;6.00;99.90
7427;DHT22;3755;59.316;18.092;2022-11-15T05:51:08;6.00;99.90
7427;DHT22;3755;59.316;18.092;2022-11-15T05:53:51;6.10;99.90
7427;DHT22;3755;59.316;18.092;2022-11-15T05:56:21;6.20;99.90
7427;DHT22;3755;59.316;18.092;2022-11-15T05:58:54;6.20;99.90
7427;DHT22;3755;59.316;18.092;2022-11-15T06:01:38;6.20;99.90
7427;DHT22;3755;59.316;18.092;2022-11-15T06:04:07;6.20;99.90
7427;DHT22;3755;59.316;18.092;2022-11-15T06:06:48;6.20;99.90
7427;DHT22;3755;59.316;18.092;2022-11-15T06:09:21;6.20;99.90
7427;DHT22;3755;59.316;18.092;2022-11-15T06:11:52;6.20;99.90
7427;DHT22;3755;59.316;18.092;2022-11-15T06:17:30;6.10;99.90
7427;DHT22;3755;59.316;18.092;2022-11-15T06:20:01;6.10;99.90
7427;DHT22;3755;59.316;18.092;2022-11-15T06:22:37;6.10;99.90
7427;DHT22;3755;59.316;18.092;2022-11-15T06:25:21;6.20;99.90
7427;DHT22;3755;59.316;18.092;2022-11-15T06:28:03;6.20;99.90
7427;DHT22;3755;59.316;18.092;2022-11-15T06:30:38;6.20;99.90
7427;DHT22;3755;59.316;18.092;2022-11-15T06:39:58;6.30;99.90
7427;DHT22;3755;59.316;18.092;2022-11-15T06:42:39;6.30;99.90
7427;DHT22;3755;59.316;18.092;2022-11-15T06:45:10;6.30;99.90
7427;DHT22;3755;59.316;18.092;2022-11-15T06:48:01;6.30;99.90
7427;DHT22;3755;59.316;18.092;2022-11-15T06:50:42;6.40;99.90
7427;DHT22;3755;59.316;18.092;2022-11-15T06:53:29;6.40;99.90
7427;DHT22;3755;59.316;18.092;2022-11-15T06:56:12;6.40;99.90
7427;DHT22;3755;59.316;18.092;2022-11-15T06:58:40;6.40;99.90
7427;DHT22;3755;59.316;18.092;2022-11-15T07:01:10;6.50;99.90
7427;DHT22;3755;59.316;18.092;2022-11-15T07:03:40;6.50;99.90
7427;DHT22;3755;59.316;18.092;2022-11-15T07:06:22;6.40;99.90
7427;DHT22;3755;59.316;18.092;2022-11-15T07:09:03;6.50;99.90
7427;DHT22;3755;59.316;18.092;2022-11-15T07:11:34;6.50;99.90
7427;DHT22;3755;59.316;18.092;2022-11-15T07:14:17;6.50;99.90
7427;DHT22;3755;59.316;18.092;2022-11-15T07:16:45;6.50;99.90
7427;DHT22;3755;59.316;18.092;2022-11-15T07:19:13;6.50;99.90
7427;DHT22;3755;59.316;18.092;2022-11-15T07:21:40;6.50;99.90
7427;DHT22;3755;59.316;18.092;2022-11-15T07:24:11;6.50;99.90
7427;DHT22;3755;59.316;18.092;2022-11-15T07:26:43;6.50;99.90
7427;DHT22;3755;59.316;18.092;2022-11-15T07:29:19;6.50;99.90
7427;DHT22;3755;59.316;18.092;2022-11-15T07:31:47;6.50;99.90
7427;DHT22;3755;59.316;18.092;2022-11-15T07:34:31;6.50;99.90
7427;DHT22;3755;59.316;18.092;2022-11-15T07:37:13;6.50;99.90
7427;DHT22;3755;59.316;18.092;2022-11-15T07:39:43;6.60;99.90
7427;DHT22;3755;59.316;18.092;2022-11-15T07:42:13;6.60;99.90
7427;DHT22;3755;59.316;18.092;2022-11-15T07:44:57;6.60;99.90
7427;DHT22;3755;59.316;18.092;2022-11-15T07:47:28;6.70;99.90
7427;DHT22;3755;59.316;18.092;2022-11-15T07:49:56;6.70;99.90
7427;DHT22;3755;59.316;18.092;2022-11-15T07:52:23;6.70;99.90
7427;DHT22;3755;59.316;18.092;2022-11-15T07:54:54;6.60;99.90
7427;DHT22;3755;59.316;18.092;2022-11-15T08:01:09;6.60;99.90
7427;DHT22;3755;59.316;18.092;2022-11-15T08:03:50;6.60;99.90
7427;DHT22;3755;59.316;18.092;2022-11-15T08:06:34;6.60;99.90
7427;DHT22;3755;59.316;18.092;2022-11-15T08:09:08;6.70;99.90
7427;DHT22;3755;59.316;18.092;2022-11-15T08:11:39;6.80;99.90
7427;DHT22;3755;59.316;18.092;2022-11-15T08:14:20;6.90;99.90
7427;DHT22;3755;59.316;18.092;2022-11-15T08:17:07;6.90;99.90
7427;DHT22;3755;59.316;18.092;2022-11-15T08:19:54;7.00;99.90
7427;DHT22;3755;59.316;18.092;2022-11-15T08:22:35;6.90;99.90
7427;DHT22;3755;59.316;18.092;2022-11-15T08:25:18;6.90;99.90
7427;DHT22;3755;59.316;18.092;2022-11-15T08:27:47;6.90;99.90
7427;DHT22;3755;59.316;18.092;2022-11-15T08:30:16;6.90;99.90
7427;DHT22;3755;59.316;18.092;2022-11-15T08:35:58;6.70;99.90
7427;DHT22;3755;59.316;18.092;2022-11-15T08:41:23;6.60;99.90
7427;DHT22;3755;59.316;18.092;2022-11-15T08:44:12;6.70;99.90
7427;DHT22;3755;59.316;18.092;2022-11-15T08:46:53;6.80;99.90
7427;DHT22;3755;59.316;18.092;2022-11-15T08:49:36;6.80;99.90
7427;DHT22;3755;59.316;18.092;2022-11-15T08:52:21;6.90;99.90
7427;DHT22;3755;59.316;18.092;2022-11-15T08:54:51;6.90;99.90
7427;DHT22;3755;59.316;18.092;2022-11-15T08:57:36;6.80;99.90
7427;DHT22;3755;59.316;18.092;2022-11-15T09:00:19;6.80;99.90
7427;DHT22;3755;59.316;18.092;2022-11-15T09:03:03;6.80;99.90
7427;DHT22;3755;59.316;18.092;2022-11-15T09:15:36;6.80;99.90
7427;DHT22;3755;59.316;18.092;2022-11-15T09:18:19;6.80;99.90
7427;DHT22;3755;59.316;18.092;2022-11-15T09:21:07;6.80;99.90
7427;DHT22;3755;59.316;18.092;2022-11-15T09:23:50;6.80;99.90
7427;DHT22;3755;59.316;18.092;2022-11-15T09:26:19;6.80;99.90
7427;DHT22;3755;59.316;18.092;2022-11-15T09:28:57;6.70;99.90
7427;DHT22;3755;59.316;18.092;2022-11-15T09:31:29;6.70;99.90
7427;DHT22;3755;59.316;18.092;2022-11-15T09:34:13;6.70;99.90
7427;DHT22;3755;59.316;18.092;2022-11-15T09:36:49;6.80;99.90
7427;DHT22;3755;59.316;18.092;2022-11-15T09:39:17;6.80;99.90
7427;DHT22;3755;59.316;18.092;2022-11-15T09:42:21;6.80;99.90
7427;DHT22;3755;59.316;18.092;2022-11-15T09:45:10;6.80;99.90
7427;DHT22;3755;59.316;18.092;2022-11-15T09:48:17;6.90;99.90
7427;DHT22;3755;59.316;18.092;2022-11-15T09:50:59;7.00;99.90
7427;DHT22;3755;59.316;18.092;2022-11-15T09:53:47;6.90;99.90
7427;DHT22;3755;59.316;18.092;2022-11-15T09:56:48;6.90;99.90
7427;DHT22;3755;59.316;18.092;2022-11-15T09:59:49;6.90;99.90
7427;DHT22;3755;59.316;18.092;2022-11-15T10:02:33;7.00;99.90
7427;DHT22;3755;59.316;18.092;2022-11-15T10:05:24;7.00;99.90
7427;DHT22;3755;59.316;18.092;2022-11-15T10:08:02;7.00;99.90
7427;DHT22;3755;59.316;18.092;2022-11-15T10:20:19;7.30;99.90
7427;DHT22;3755;59.316;18.092;2022-11-15T10:23:10;7.20;99.90
7427;DHT22;3755;59.316;18.092;2022-11-15T10:25:40;7.30;99.90
7427;DHT22;3755;59.316;18.092;2022-11-15T10:28:27;7.30;99.90
7427;DHT22;3755;59.316;18.092;2022-11-15T10:31:22;7.20;99.90
7427;DHT22;3755;59.316;18.092;2022-11-15T10:34:12;7.30;99.90
7427;DHT22;3755;59.316;18.092;2022-11-15T10:37:10;7.20;99.90
7427;DHT22;3755;59.316;18.092;2022-11-15T10:40:04;7.40;99.90
7427;DHT22;3755;59.316;18.092;2022-11-15T10:42:47;7.00;99.90
7427;DHT22;3755;59.316;18.092;2022-11-15T10:45:31;7.00;99.90
7427;DHT22;3755;59.316;18.092;2022-11-15T10:48:28;7.00;99.90
7427;DHT22;3755;59.316;18.092;2022-11-15T10:50:59;7.00;99.90
7427;DHT22;3755;59.316;18.092;2022-11-15T10:53:52;7.00;99.90
7427;DHT22;3755;59.316;18.092;2022-11-15T10:56:25;6.80;99.90
7427;DHT22;3755;59.316;18.092;2022-11-15T10:58:56;7.00;99.90
7427;DHT22;3755;59.316;18.092;2022-11-15T11:01:46;7.00;99.90
7427;DHT22;3755;59.316;18.092;2022-11-15T11:04:18;7.00;99.90
7427;DHT22;3755;59.316;18.092;2022-11-15T11:07:01;7.10;99.90
7427;DHT22;3755;59.316;18.092;2022-11-15T11:13:12;7.10;99.90
7427;DHT22;3755;59.316;18.092;2022-11-15T11:16:32;7.20;99.90
7427;DHT22;3755;59.316;18.092;2022-11-15T11:19:39;7.10;99.90
7427;DHT22;3755;59.316;18.092;2022-11-15T11:22:32;7.10;99.90
7427;DHT22;3755;59.316;18.092;2022-11-15T11:25:32;7.20;99.90
7427;DHT22;3755;59.316;18.092;2022-11-15T11:34:54;7.40;99.90
7427;DHT22;3755;59.316;18.092;2022-11-15T11:37:33;7.30;99.90
7427;DHT22;3755;59.316;18.092;2022-11-15T11:40:18;7.20;99.90
7427;DHT22;3755;59.316;18.092;2022-11-15T11:43:11;7.00;99.90
7427;DHT22;3755;59.316;18.092;2022-11-15T11:46:09;7.00;99.90
7427;DHT22;3755;59.316;18.092;2022-11-15T11:58:04;7.00;99.90
7427;DHT22;3755;59.316;18.092;2022-11-15T12:00:41;7.00;99.90
7427;DHT22;3755;59.316;18.092;2022-11-15T12:03:29;7.00;99.90
7427;DHT22;3755;59.316;18.092;2022-11-15T12:06:02;7.00;99.90
7427;DHT22;3755;59.316;18.092;2022-11-15T12:08:45;6.90;99.90
7427;DHT22;3755;59.316;18.092;2022-11-15T12:11:52;7.00;99.90
7427;DHT22;3755;59.316;18.092;2022-11-15T12:14:32;7.10;99.90
7427;DHT22;3755;59.316;18.092;2022-11-15T12:17:24;7.00;99.90
7427;DHT22;3755;59.316;18.092;2022-11-15T12:20:15;7.00;99.90
7427;DHT22;3755;59.316;18.092;2022-11-15T12:23:00;7.00;99.90
7427;DHT22;3755;59.316;18.092;2022-11-15T12:25:46;6.90;99.90
7427;DHT22;3755;59.316;18.092;2022-11-15T12:28:35;6.70;99.90
7427;DHT22;3755;59.316;18.092;2022-11-15T12:31:12;6.70;99.90
7427;DHT22;3755;59.316;18.092;2022-11-15T12:33:47;6.70;99.90
7427;DHT22;3755;59.316;18.092;2022-11-15T12:36:41;6.60;99.90
7427;DHT22;3755;59.316;18.092;2022-11-15T12:39:10;6.70;99.90
7427;DHT22;3755;59.316;18.092;2022-11-15T12:41:41;6.70;99.90
7427;DHT22;3755;59.316;18.092;2022-11-15T12:47:26;6.80;99.90
7427;DHT22;3755;59.316;18.092;2022-11-15T12:50:12;6.80;99.90
7427;DHT22;3755;59.316;18.092;2022-11-15T12:55:31;6.70;99.90
7427;DHT22;3755;59.316;18.092;2022-11-15T12:58:24;6.70;99.90
7427;DHT22;3755;59.316;18.092;2022-11-15T13:14:59;6.60;99.90
7427;DHT22;3755;59.316;18.092;2022-11-15T13:17:45;6.60;99.90
7427;DHT22;3755;59.316;18.092;2022-11-15T13:20:54;6.60;99.90
7427;DHT22;3755;59.316;18.092;2022-11-15T13:24:02;6.60;99.90
7427;DHT22;3755;59.316;18.092;2022-11-15T13:27:20;6.60;99.90
7427;DHT22;3755;59.316;18.092;2022-11-15T13:36:39;6.40;99.90
7427;DHT22;3755;59.316;18.092;2022-11-15T13:39:36;6.40;99.90
7427;DHT22;3755;59.316;18.092;2022-11-15T13:42:22;6.40;99.90
7427;DHT22;3755;59.316;18.092;2022-11-15T13:45:41;6.30;99.90
7427;DHT22;3755;59.316;18.092;2022-11-15T13:51:47;6.30;99.90
7427;DHT22;3755;59.316;18.092;2022-11-15T13:54:34;6.30;99.90
7427;DHT22;3755;59.316;18.092;2022-11-15T13:57:22;6.20;99.90
7427;DHT22;3755;59.316;18.092;2022-11-15T14:00:22;6.40;99.90
7427;DHT22;3755;59.316;18.092;2022-11-15T14:03:22;6.30;99.90
7427;DHT22;3755;59.316;18.092;2022-11-15T14:10:09;6.20;99.90
7427;DHT22;3755;59.316;18.092;2022-11-15T14:12:59;6.20;99.90
7427;DHT22;3755;59.316;18.092;2022-11-15T14:15:40;6.20;99.90
7427;DHT22;3755;59.316;18.092;2022-11-15T14:18:40;5.90;99.90
7427;DHT22;3755;59.316;18.092;2022-11-15T14:21:22;6.10;99.90
7427;DHT22;3755;59.316;18.092;2022-11-15T14:24:18;6.20;99.90
7427;DHT22;3755;59.316;18.092;2022-11-15T14:33:33;6.10;99.90
7427;DHT22;3755;59.316;18.092;2022-11-15T14:39:40;6.10;99.90
7427;DHT22;3755;59.316;18.092;2022-11-15T14:42:26;6.10;99.90
7427;DHT22;3755;59.316;18.092;2022-11-15T14:45:13;6.10;99.90
7427;DHT22;3755;59.316;18.092;2022-11-15T14:48:02;6.30;99.90
7427;DHT22;3755;59.316;18.092;2022-11-15T14:54:14;6.00;99.90
7427;DHT22;3755;59.316;18.092;2022-11-15T14:56:59;6.00;99.90
7427;DHT22;3755;59.316;18.092;2022-11-15T14:59:40;6.00;99.90
7427;DHT22;3755;59.316;18.092;2022-11-15T15:02:15;6.00;99.90
7427;DHT22;3755;59.316;18.092;2022-11-15T15:04:56;6.00;99.90
7427;DHT22;3755;59.316;18.092;2022-11-15T15:07:29;6.00;99.90
7427;DHT22;3755;59.316;18.092;2022-11-15T15:16:43;5.90;99.90
7427;DHT22;3755;59.316;18.092;2022-11-15T15:19:46;5.90;99.90
7427;DHT22;3755;59.316;18.092;2022-11-15T15:22:29;6.10;99.90
7427;DHT22;3755;59.316;18.092;2022-11-15T15:25:31;5.90;99.90
7427;DHT22;3755;59.316;18.092;2022-11-15T15:28:25;5.90;99.90
7427;DHT22;3755;59.316;18.092;2022-11-15T15:31:08;5.80;99.90
7427;DHT22;3755;59.316;18.092;2022-11-15T15:33:51;5.80;99.90
7427;DHT22;3755;59.316;18.092;2022-11-15T15:36:33;5.80;99.90
7427;DHT22;3755;59.316;18.092;2022-11-15T15:39:02;5.70;99.90
7427;DHT22;3755;59.316;18.092;2022-11-15T15:41:43;5.70;99.90
7427;DHT22;3755;59.316;18.092;2022-11-15T15:44:11;5.70;99.90
7427;DHT22;3755;59.316;18.092;2022-11-15T15:46:53;5.70;99.90
7427;DHT22;3755;59.316;18.092;2022-11-15T15:59:18;5.70;99.90
7427;DHT22;3755;59.316;18.092;2022-11-15T16:02:00;5.70;99.90
7427;DHT22;3755;59.316;18.092;2022-11-15T16:04:45;5.60;99.90
7427;DHT22;3755;59.316;18.092;2022-11-15T16:07:28;5.60;99.90
7427;DHT22;3755;59.316;18.092;2022-11-15T16:10:24;5.60;99.90
7427;DHT22;3755;59.316;18.092;2022-11-15T16:13:06;5.60;99.90
7427;DHT22;3755;59.316;18.092;2022-11-15T16:22:17;5.70;99.90
7427;DHT22;3755;59.316;18.092;2022-11-15T16:25:03;5.70;99.90
7427;DHT22;3755;59.316;18.092;2022-11-15T16:27:39;5.70;99.90
7427;DHT22;3755;59.316;18.092;2022-11-15T16:30:24;5.60;99.90
7427;DHT22;3755;59.316;18.092;2022-11-15T16:36:55;5.60;99.90
7427;DHT22;3755;59.316;18.092;2022-11-15T16:39:38;5.70;99.90
7427;DHT22;3755;59.316;18.092;2022-11-15T16:42:06;5.70;99.90
7427;DHT22;3755;59.316;18.092;2022-11-15T16:44:35;5.70;99.90
7427;DHT22;3755;59.316;18.092;2022-11-15T16:47:15;5.70;99.90
7427;DHT22;3755;59.316;18.092;2022-11-15T16:49:58;5.70;99.90
7427;DHT22;3755;59.316;18.092;2022-11-15T16:52:44;5.70;99.90
7427;DHT22;3755;59.316;18.092;2022-11-15T16:55:14;5.70;99.90
7427;DHT22;3755;59.316;18.092;2022-11-15T16:57:57;5.70;99.90
7427;DHT22;3755;59.316;18.092;2022-11-15T17:00:25;5.70;99.90
7427;DHT22;3755;59.316;18.092;2022-11-15T17:03:06;5.70;99.90
7427;DHT22;3755;59.316;18.092;2022-11-15T17:05:48;5.70;99.90
7427;DHT22;3755;59.316;18.092;2022-11-15T17:08:29;5.70;99.90
7427;DHT22;3755;59.316;18.092;2022-11-15T17:10:59;5.60;99.90
7427;DHT22;3755;59.316;18.092;2022-11-15T17:13:47;5.60;99.90
7427;DHT22;3755;59.316;18.092;2022-11-15T17:16:21;5.60;99.90
7427;DHT22;3755;59.316;18.092;2022-11-15T17:18:52;5.60;99.90
7427;DHT22;3755;59.316;18.092;2022-11-15T17:21:21;5.60;99.90
7427;DHT22;3755;59.316;18.092;2022-11-15T17:23:53;5.60;99.90
7427;DHT22;3755;59.316;18.092;2022-11-15T17:26:22;5.50;99.90
7427;DHT22;3755;59.316;18.092;2022-11-15T17:28:54;5.60;99.90
7427;DHT22;3755;59.316;18.092;2022-11-15T17:31:21;5.50;99.90
7427;DHT22;3755;59.316;18.092;2022-11-15T17:33:51;5.50;99.90
7427;DHT22;3755;59.316;18.092;2022-11-15T17:36:19;5.50;99.90
7427;DHT22;3755;59.316;18.092;2022-11-15T17:38:47;5.50;99.90
7427;DHT22;3755;59.316;18.092;2022-11-15T17:41:30;5.50;99.90
7427;DHT22;3755;59.316;18.092;2022-11-15T17:43:59;5.50;99.90
7427;DHT22;3755;59.316;18.092;2022-11-15T17:46:28;5.50;99.90
7427;DHT22;3755;59.316;18.092;2022-11-15T17:48:56;5.60;99.90
7427;DHT22;3755;59.316;18.092;2022-11-15T17:51:26;5.50;99.90
7427;DHT22;3755;59.316;18.092;2022-11-15T17:54:11;5.50;99.90
7427;DHT22;3755;59.316;18.092;2022-11-15T17:56:56;5.50;99.90
7427;DHT22;3755;59.316;18.092;2022-11-15T17:59:24;5.60;99.90
7427;DHT22;3755;59.316;18.092;2022-11-15T18:01:51;5.60;99.90
7427;DHT22;3755;59.316;18.092;2022-11-15T18:04:19;5.60;99.90
7427;DHT22;3755;59.316;18.092;2022-11-15T18:06:54;5.60;99.90
7427;DHT22;3755;59.316;18.092;2022-11-15T18:09:23;5.60;99.90
7427;DHT22;3755;59.316;18.092;2022-11-15T18:11:56;5.60;99.90
7427;DHT22;3755;59.316;18.092;2022-11-15T18:14:34;5.60;99.90
7427;DHT22;3755;59.316;18.092;2022-11-15T18:17:01;5.60;99.90
7427;DHT22;3755;59.316;18.092;2022-11-15T18:19:29;5.60;99.90
7427;DHT22;3755;59.316;18.092;2022-11-15T18:21:57;5.60;99.90
7427;DHT22;3755;59.316;18.092;2022-11-15T18:24:27;5.60;99.90
7427;DHT22;3755;59.316;18.092;2022-11-15T18:27:01;5.60;99.90
7427;DHT22;3755;59.316;18.092;2022-11-15T18:29:42;5.70;99.90
7427;DHT22;3755;59.316;18.092;2022-11-15T18:32:11;5.60;99.90
7427;DHT22;3755;59.316;18.092;2022-11-15T18:34:42;5.60;99.90
7427;DHT22;3755;59.316;18.092;2022-11-15T18:37:09;5.60;99.90
7427;DHT22;3755;59.316;18.092;2022-11-15T18:39:40;5.60;99.90
7427;DHT22;3755;59.316;18.092;2022-11-15T18:42:23;5.60;99.90
7427;DHT22;3755;59.316;18.092;2022-11-15T18:44:50;5.60;99.90
7427;DHT22;3755;59.316;18.092;2022-11-15T18:47:18;5.50;99.90
7427;DHT22;3755;59.316;18.092;2022-11-15T18:49:47;5.60;99.90
7427;DHT22;3755;59.316;18.092;2022-11-15T18:52:15;5.60;99.90
7427;DHT22;3755;59.316;18.092;2022-11-15T18:54:43;5.50;99.90
7427;DHT22;3755;59.316;18.092;2022-11-15T18:57:12;5.50;99.90
7427;DHT22;3755;59.316;18.092;2022-11-15T18:59:54;5.60;99.90
7427;DHT22;3755;59.316;18.092;2022-11-15T19:02:28;5.60;99.90
7427;DHT22;3755;59.316;18.092;2022-11-15T19:05:09;5.60;99.90
7427;DHT22;3755;59.316;18.092;2022-11-15T19:07:50;5.60;99.90
7427;DHT22;3755;59.316;18.092;2022-11-15T19:10:18;5.60;99.90
7427;DHT22;3755;59.316;18.092;2022-11-15T19:13:00;5.60;99.90
7427;DHT22;3755;59.316;18.092;2022-11-15T19:15:31;5.50;99.90
7427;DHT22;3755;59.316;18.092;2022-11-15T19:18:16;5.50;99.90
7427;DHT22;3755;59.316;18.092;2022-11-15T19:21:01;5.50;99.90
7427;DHT22;3755;59.316;18.092;2022-11-15T19:23:42;5.50;99.90
7427;DHT22;3755;59.316;18.092;2022-11-15T19:26:13;5.50;99.90
7427;DHT22;3755;59.316;18.092;2022-11-15T19:28:53;5.20;99.90
7427;DHT22;3755;59.316;18.092;2022-11-15T19:31:23;5.50;99.90